Time;durP1;ratioP1;P1;durP2;ratioP2;P2;SDS_P1;SDS_P2;PMS_P1;PMS_P2;Temp;Humidity;BMP_temperature;BMP_pressure;BME280_temperature;BME280_humidity;BME280_pressure;Samples;Min_cycle;Max_cycle;Signal;HPM_P1;HPM_P2
2021/01/21 00:02:08;;;;;;;;;;;;;;;17.10;34.83;98193.28;4404475;32;19994;-53
2021/01/21 00:04:34;;;;;;;;;;;;;;;17.13;34.66;98193.25;4394279;32;20343;-52
2021/01/21 00:07:00;;;;;;;;;;;;;;;17.21;34.56;98192.28;4389660;32;19951;-52
2021/01/21 00:09:26;;;;;;;;;;;;;;;17.13;34.74;98192.38;4404605;32;19958;-51
2021/01/21 00:11:52;;;;;;;;;;;;;;;17.16;34.74;98194.09;4404458;32;19980;-51
2021/01/21 00:14:17;;;;;;;;;;;;;;;17.13;34.71;98188.00;4403613;32;19969;-50
2021/01/21 00:16:44;;;;;;;;;;;;;;;17.12;34.67;98191.50;4404876;32;19974;-47
2021/01/21 00:19:09;;;;;;;;;;;;;;;17.09;34.81;98188.03;4403654;32;19984;-49
2021/01/21 00:21:35;;;;;;;;;;;;;;;17.10;34.76;98177.50;4404437;32;19958;-48
2021/01/21 00:24:01;;;;;;;;;;;;;;;17.19;34.58;98165.13;4404354;32;20000;-51
2021/01/21 00:26:27;;;;;;;;;;;;;;;17.22;34.46;98165.09;4403367;32;19973;-50
2021/01/21 00:28:53;;;;;;;;;;;;;;;17.22;34.45;98166.00;4404151;32;20398;-52
2021/01/21 00:31:19;;;;;;;;;;;;;;;17.22;34.49;98154.59;4403070;32;19955;-48
2021/01/21 00:33:45;;;;;;;;;;;;;;;17.19;34.50;98155.50;4400855;32;19962;-51
2021/01/21 00:36:12;;;;;;;;;;;;;;;17.13;34.59;98151.19;4396437;32;20550;-50
2021/01/21 00:38:38;;;;;;;;;;;;;;;17.11;34.61;98147.69;4403815;32;20018;-49
2021/01/21 00:41:04;;;;;;;;;;;;;;;17.07;34.68;98145.97;4403565;32;19965;-51
2021/01/21 00:43:30;;;;;;;;;;;;;;;17.11;34.55;98150.31;4404648;32;19950;-50
2021/01/21 00:45:56;;;;;;;;;;;;;;;17.10;34.62;98151.22;4404521;32;20002;-51
2021/01/21 00:48:22;;;;;;;;;;;;;;;17.10;34.61;98145.97;4401242;32;20003;-51
2021/01/21 00:50:48;;;;;;;;;;;;;;;17.07;34.64;98143.34;4402698;32;20572;-51
2021/01/21 00:53:14;;;;;;;;;;;;;;;17.11;34.56;98137.19;4403375;32;19951;-52
2021/01/21 00:55:40;;;;;;;;;;;;;;;17.07;34.53;98135.44;4404459;32;19955;-52
2021/01/21 00:58:06;;;;;;;;;;;;;;;17.09;34.63;98120.50;4402993;32;20380;-54
2021/01/21 01:00:32;;;;;;;;;;;;;;;17.08;34.55;98121.41;4404169;32;19965;-53
2021/01/21 01:02:58;;;;;;;;;;;;;;;17.09;34.58;98119.66;4418915;32;19958;-50
2021/01/21 01:05:24;;;;;;;;;;;;;;;17.06;34.59;98103.91;4390140;32;19958;-49
2021/01/21 01:07:49;;;;;;;;;;;;;;;17.09;34.50;98104.72;4404151;32;19950;-53
2021/01/21 01:10:15;;;;;;;;;;;;;;;17.11;34.50;98097.72;4402895;32;20278;-51
2021/01/21 01:12:41;;;;;;;;;;;;;;;17.11;34.47;98100.34;4403364;32;19954;-49
2021/01/21 01:15:07;;;;;;;;;;;;;;;17.07;34.51;98093.38;4403464;32;19951;-53
2021/01/21 01:17:33;;;;;;;;;;;;;;;17.06;34.48;98091.62;4403588;32;20497;-48
2021/01/21 01:19:59;;;;;;;;;;;;;;;17.05;34.49;98081.16;4402440;32;20006;-53
2021/01/21 01:22:25;;;;;;;;;;;;;;;17.05;34.50;98087.25;4402639;32;19995;-48
2021/01/21 01:24:51;;;;;;;;;;;;;;;17.00;34.58;98081.19;4403452;32;19950;-50
2021/01/21 01:27:17;;;;;;;;;;;;;;;17.02;34.58;98084.66;4403262;32;19959;-48
2021/01/21 01:29:42;;;;;;;;;;;;;;;17.01;34.59;98085.56;4402588;32;19954;-46
2021/01/21 01:32:08;;;;;;;;;;;;;;;17.01;34.54;98080.31;4403182;32;20002;-50
2021/01/21 01:34:34;;;;;;;;;;;;;;;17.02;34.56;98083.78;4403091;32;19959;-52
2021/01/21 01:37:00;;;;;;;;;;;;;;;17.04;34.50;98088.16;4403248;32;20602;-53
2021/01/21 01:39:26;;;;;;;;;;;;;;;17.03;34.51;98081.16;4402564;32;19962;-49
2021/01/21 01:41:52;;;;;;;;;;;;;;;16.99;34.57;98074.16;4403355;32;19969;-47
2021/01/21 01:44:18;;;;;;;;;;;;;;;17.00;34.59;98075.94;4403453;32;19988;-48
2021/01/21 01:46:44;;;;;;;;;;;;;;;16.97;34.61;98074.16;4414236;32;19994;-52
2021/01/21 01:49:10;;;;;;;;;;;;;;;16.98;34.59;98077.69;4402397;32;19962;-49
2021/01/21 01:51:37;;;;;;;;;;;;;;;16.97;34.59;98071.53;4403132;32;19973;-52
2021/01/21 01:54:03;;;;;;;;;;;;;;;16.93;34.61;98064.56;4402578;32;20302;-47
2021/01/21 01:56:29;;;;;;;;;;;;;;;16.95;34.58;98059.28;4402098;32;19959;-51
2021/01/21 01:58:57;;;;;;;;;;;;;;;16.95;34.57;98051.41;4398928;32;19982;-50
2021/01/21 02:01:23;;;;;;;;;;;;;;;16.95;34.57;98051.41;4389509;32;20034;-50
2021/01/21 02:03:48;;;;;;;;;;;;;;;16.97;34.53;98039.97;4404041;32;20018;-51
2021/01/21 02:06:14;;;;;;;;;;;;;;;16.96;34.48;98038.25;4396363;32;19966;-50
2021/01/21 02:08:40;;;;;;;;;;;;;;;16.94;34.56;98039.12;4399000;32;19969;-51
2021/01/21 02:11:06;;;;;;;;;;;;;;;16.94;34.56;98029.50;4402740;32;20019;-50
2021/01/21 02:13:32;;;;;;;;;;;;;;;16.96;34.52;98029.47;4403875;32;20014;-50
2021/01/21 02:15:58;;;;;;;;;;;;;;;16.96;34.49;98024.22;4395537;32;19979;-52
2021/01/21 02:18:24;;;;;;;;;;;;;;;16.92;34.58;98025.16;4386635;32;20312;-51
2021/01/21 02:20:50;;;;;;;;;;;;;;;16.88;34.66;98020.81;4394392;32;19982;-50
2021/01/21 02:23:16;;;;;;;;;;;;;;;16.85;34.73;98016.44;4396537;32;19958;-51
2021/01/21 02:25:42;;;;;;;;;;;;;;;16.77;34.84;98011.28;4396068;32;19954;-53
2021/01/21 02:28:07;;;;;;;;;;;;;;;16.80;34.78;98005.97;4393854;32;19966;-50
2021/01/21 02:30:33;;;;;;;;;;;;;;;16.77;34.87;98013.03;4395276;32;20077;-54
2021/01/21 02:32:59;;;;;;;;;;;;;;;16.88;34.64;97998.00;4396749;32;20388;-49
2021/01/21 02:35:25;;;;;;;;;;;;;;;16.90;34.60;97998.84;4394948;32;19950;-49
2021/01/21 02:37:51;;;;;;;;;;;;;;;16.90;34.58;97998.00;4396346;32;20351;-52
2021/01/21 02:40:17;;;;;;;;;;;;;;;16.94;34.49;97979.56;4395528;32;19958;-49
2021/01/21 02:42:44;;;;;;;;;;;;;;;16.93;34.52;97985.69;4392197;32;19962;-48
2021/01/21 02:45:10;;;;;;;;;;;;;;;16.90;34.58;97982.22;4390381;32;19950;-52
2021/01/21 02:47:36;;;;;;;;;;;;;;;16.93;34.48;97975.19;4395728;32;19965;-49
2021/01/21 02:50:01;;;;;;;;;;;;;;;16.92;34.48;97977.81;4394526;32;19950;-50
2021/01/21 02:52:27;;;;;;;;;;;;;;;16.89;34.56;97969.97;4395014;32;19985;-53
2021/01/21 02:54:53;;;;;;;;;;;;;;;16.86;34.57;97970.88;4395778;32;19990;-51
2021/01/21 02:57:19;;;;;;;;;;;;;;;16.92;34.52;97972.56;4394457;32;20382;-47
2021/01/21 02:59:45;;;;;;;;;;;;;;;16.80;34.70;97969.19;4395880;32;19951;-51
2021/01/21 03:02:11;;;;;;;;;;;;;;;16.86;34.61;97965.63;4394424;32;19939;-49
2021/01/21 03:04:37;;;;;;;;;;;;;;;16.89;34.54;97962.94;4394951;32;20029;-50
2021/01/21 03:07:03;;;;;;;;;;;;;;;16.89;34.53;97952.44;4387348;32;20014;-52
2021/01/21 03:09:29;;;;;;;;;;;;;;;16.80;34.67;97963.94;4401134;32;20341;-52
2021/01/21 03:11:55;;;;;;;;;;;;;;;16.89;34.54;97967.34;4398944;32;19947;-51
2021/01/21 03:14:21;;;;;;;;;;;;;;;16.90;34.46;97969.09;4398524;32;19955;-51
2021/01/21 03:16:46;;;;;;;;;;;;;;;16.91;34.45;97969.03;4403387;32;19938;-51
2021/01/21 03:19:12;;;;;;;;;;;;;;;16.79;34.65;97977.97;4401101;32;20276;-52
2021/01/21 03:21:38;;;;;;;;;;;;;;;16.81;34.63;97975.31;4403156;32;19950;-49
2021/01/21 03:24:04;;;;;;;;;;;;;;;16.86;34.54;97966.50;4402512;32;19950;-51
2021/01/21 03:26:30;;;;;;;;;;;;;;;16.86;34.52;97963.88;4403424;32;19947;-53
2021/01/21 03:28:56;;;;;;;;;;;;;;;16.80;34.62;97956.03;4402509;32;19996;-53
2021/01/21 03:31:22;;;;;;;;;;;;;;;16.81;34.57;97949.91;4402844;32;19997;-49
2021/01/21 03:33:48;;;;;;;;;;;;;;;16.72;34.75;97950.00;4402681;32;20345;-51
2021/01/21 03:36:13;;;;;;;;;;;;;;;16.64;34.92;97949.22;4402091;32;19942;-52
2021/01/21 03:38:39;;;;;;;;;;;;;;;16.58;35.01;97937.03;4402148;32;19963;-52
2021/01/21 03:41:05;;;;;;;;;;;;;;;16.71;34.76;97940.38;4416458;32;19980;-53
2021/01/21 03:43:31;;;;;;;;;;;;;;;16.79;34.63;97941.16;4394900;32;19942;-52
2021/01/21 03:45:57;;;;;;;;;;;;;;;16.82;34.53;97945.53;4403135;32;19958;-52
2021/01/21 03:48:23;;;;;;;;;;;;;;;16.82;34.50;97943.75;4414442;32;20037;-53
2021/01/21 03:50:49;;;;;;;;;;;;;;;16.81;34.53;97949.03;4406035;32;19942;-54
2021/01/21 03:53:15;;;;;;;;;;;;;;;16.82;34.49;97949.00;4416594;32;20244;-51
2021/01/21 03:55:41;;;;;;;;;;;;;;;16.82;34.51;97956.88;4402578;32;19951;-48
2021/01/21 03:58:06;;;;;;;;;;;;;;;16.82;34.50;97954.25;4402727;32;19950;-49
2021/01/21 04:00:32;;;;;;;;;;;;;;;16.83;34.45;97969.12;4400547;32;20716;-53
2021/01/21 04:02:58;;;;;;;;;;;;;;;16.82;34.50;97959.50;4401685;32;19965;-52
2021/01/21 04:05:24;;;;;;;;;;;;;;;16.77;34.60;97963.09;4401445;32;19954;-49
2021/01/21 04:07:50;;;;;;;;;;;;;;;16.76;34.59;97949.09;4402368;32;19951;-52
2021/01/21 04:10:16;;;;;;;;;;;;;;;16.74;34.61;97950.00;4399274;32;19991;-51
2021/01/21 04:12:42;;;;;;;;;;;;;;;16.76;34.58;97938.56;4397278;32;19973;-51
2021/01/21 04:15:09;;;;;;;;;;;;;;;16.79;34.51;97956.94;4397660;32;19998;-52
2021/01/21 04:17:35;;;;;;;;;;;;;;;16.83;34.46;97944.63;4403423;32;19973;-50
2021/01/21 04:20:01;;;;;;;;;;;;;;;16.79;34.50;97946.41;4401355;32;19950;-49
2021/01/21 04:22:27;;;;;;;;;;;;;;;16.81;34.46;97944.63;4417538;32;19962;-48
2021/01/21 04:24:53;;;;;;;;;;;;;;;16.82;34.41;97935.00;4412283;32;19970;-51
2021/01/21 04:27:18;;;;;;;;;;;;;;;16.80;34.47;97948.16;4404702;32;20074;-51
2021/01/21 04:29:44;;;;;;;;;;;;;;;16.78;34.51;97949.94;4404627;32;19988;-52
2021/01/21 04:32:10;;;;;;;;;;;;;;;16.76;34.56;97948.19;4405167;32;19989;-51
2021/01/21 04:34:36;;;;;;;;;;;;;;;16.80;34.43;97948.16;4404879;32;19971;-49
2021/01/21 04:37:02;;;;;;;;;;;;;;;16.78;34.47;97955.19;4404949;32;20320;-50
2021/01/21 04:39:28;;;;;;;;;;;;;;;16.77;34.49;97957.81;4404605;32;19983;-53
2021/01/21 04:41:54;;;;;;;;;;;;;;;16.73;34.59;97957.03;4404847;32;19996;-49
2021/01/21 04:44:20;;;;;;;;;;;;;;;16.77;34.50;97947.31;4404495;32;19960;-54
2021/01/21 04:46:46;;;;;;;;;;;;;;;16.76;34.50;97945.56;4394143;32;20031;-48
2021/01/21 04:49:12;;;;;;;;;;;;;;;16.75;34.50;97949.97;4389991;32;19989;-52
2021/01/21 04:51:37;;;;;;;;;;;;;;;16.64;34.74;97936.94;4405609;32;20365;-51
2021/01/21 04:54:03;;;;;;;;;;;;;;;16.39;35.27;97936.34;4404172;32;19981;-51
2021/01/21 04:56:29;;;;;;;;;;;;;;;16.49;35.13;97932.75;4410239;32;19962;-53
2021/01/21 04:58:55;;;;;;;;;;;;;;;16.45;35.21;97936.28;4419682;32;19958;-48
2021/01/21 05:01:21;;;;;;;;;;;;;;;16.52;35.07;97931.81;4405474;32;20331;-52
2021/01/21 05:03:47;;;;;;;;;;;;;;;16.62;34.89;97928.22;4413755;32;19950;-50
2021/01/21 05:06:13;;;;;;;;;;;;;;;16.66;34.81;97926.44;4407255;32;19958;-52
2021/01/21 05:08:39;;;;;;;;;;;;;;;16.54;35.05;97920.41;4403902;32;19988;-52
2021/01/21 05:11:05;;;;;;;;;;;;;;;16.54;35.05;97909.91;4402445;32;19961;-49
2021/01/21 05:13:31;;;;;;;;;;;;;;;16.47;35.19;97916.09;4404139;32;19950;-54
2021/01/21 05:15:56;;;;;;;;;;;;;;;16.56;35.08;97920.41;4400293;32;20299;-48
2021/01/21 05:18:22;;;;;;;;;;;;;;;16.66;34.91;97913.28;4386545;32;20034;-51
2021/01/21 05:20:48;;;;;;;;;;;;;;;16.71;34.78;97916.72;4399291;32;20771;-52
2021/01/21 05:23:14;;;;;;;;;;;;;;;16.72;34.77;97918.47;4418498;32;19955;-52
2021/01/21 05:25:40;;;;;;;;;;;;;;;16.75;34.68;97918.44;4412592;32;19965;-53
2021/01/21 05:28:06;;;;;;;;;;;;;;;16.72;34.77;97918.47;4403063;32;20274;-51
2021/01/21 05:30:32;;;;;;;;;;;;;;;16.71;34.76;97916.72;4399080;32;19954;-51
2021/01/21 05:32:58;;;;;;;;;;;;;;;16.67;34.86;97909.75;4403636;32;20295;-48
2021/01/21 05:35:24;;;;;;;;;;;;;;;16.51;35.19;97909.06;4403033;32;19984;-50
2021/01/21 05:37:54;;;;;;;;;;;;;;;16.38;35.41;97898.69;4403397;32;19953;-49
2021/01/21 05:40:20;;;;;;;;;;;;;;;16.34;35.49;97891.75;4402896;32;19996;-50
2021/01/21 05:42:46;;;;;;;;;;;;;;;16.53;35.11;97896.78;4403235;32;19947;-50
2021/01/21 05:45:12;;;;;;;;;;;;;;;16.66;34.85;97882.59;4402749;32;19970;-52
2021/01/21 05:47:38;;;;;;;;;;;;;;;16.68;34.80;97887.84;4410766;32;20075;-51
2021/01/21 05:50:03;;;;;;;;;;;;;;;16.68;34.80;97885.22;4387678;32;20000;-51
2021/01/21 05:52:29;;;;;;;;;;;;;;;16.70;34.77;97889.59;4403137;32;20356;-51
2021/01/21 05:54:56;;;;;;;;;;;;;;;16.69;34.76;97882.59;4403128;32;19977;-50
2021/01/21 05:57:22;;;;;;;;;;;;;;;16.69;34.78;97865.94;4402307;32;19947;-51
2021/01/21 05:59:48;;;;;;;;;;;;;;;16.72;34.73;97886.91;4387221;32;20034;-52
2021/01/21 06:02:13;;;;;;;;;;;;;;;16.67;34.82;97884.38;4401722;32;19986;-50
2021/01/21 06:04:39;;;;;;;;;;;;;;;16.70;34.76;97878.19;4403297;32;19965;-50
2021/01/21 06:07:05;;;;;;;;;;;;;;;16.72;34.74;97882.53;4399375;32;20376;-48
2021/01/21 06:09:31;;;;;;;;;;;;;;;16.70;34.79;97884.31;4415385;32;19942;-51
2021/01/21 06:11:57;;;;;;;;;;;;;;;16.70;34.80;97896.59;4406173;32;19947;-51
2021/01/21 06:14:24;;;;;;;;;;;;;;;16.67;34.89;97904.50;4400570;32;20098;-50
2021/01/21 06:16:50;;;;;;;;;;;;;;;16.73;34.81;97899.19;4400655;32;20280;-50
2021/01/21 06:19:15;;;;;;;;;;;;;;;16.70;34.91;97904.47;4396408;32;19943;-53
2021/01/21 06:21:41;;;;;;;;;;;;;;;16.70;34.94;97907.09;4397743;32;19991;-50
2021/01/21 06:24:07;;;;;;;;;;;;;;;16.70;34.93;97899.22;4394309;32;19952;-50
2021/01/21 06:26:33;;;;;;;;;;;;;;;16.70;34.94;97912.34;4395339;32;19965;-51
2021/01/21 06:28:59;;;;;;;;;;;;;;;16.69;34.96;97914.13;4393902;32;19992;-51
2021/01/21 06:31:25;;;;;;;;;;;;;;;16.70;34.91;97915.88;4393919;32;19963;-52
2021/01/21 06:33:51;;;;;;;;;;;;;;;16.66;35.01;97915.91;4394781;32;19995;-53
2021/01/21 06:36:17;;;;;;;;;;;;;;;16.68;34.99;97911.50;4395326;32;19969;-52
2021/01/21 06:38:43;;;;;;;;;;;;;;;16.66;35.03;97908.88;4399035;32;19955;-50
2021/01/21 06:41:09;;;;;;;;;;;;;;;16.68;35.00;97909.75;4395348;32;20405;-50
2021/01/21 06:43:35;;;;;;;;;;;;;;;16.68;34.96;97908.88;4395602;32;19954;-51
2021/01/21 06:46:00;;;;;;;;;;;;;;;16.70;34.96;97907.09;4394152;32;19948;-50
2021/01/21 06:48:26;;;;;;;;;;;;;;;16.70;34.97;97909.72;4397911;32;19962;-52
2021/01/21 06:50:52;;;;;;;;;;;;;;;16.70;34.97;97904.47;4392949;32;19961;-51
2021/01/21 06:53:18;;;;;;;;;;;;;;;16.70;34.96;97909.72;4395828;32;20389;-50
2021/01/21 06:55:44;;;;;;;;;;;;;;;16.71;34.95;97901.84;4393982;32;19955;-50
2021/01/21 06:58:10;;;;;;;;;;;;;;;16.72;34.96;97913.19;4374188;32;19986;-52
2021/01/21 07:00:36;;;;;;;;;;;;;;;16.68;35.02;97901.00;4385312;32;20363;-50
2021/01/21 07:03:02;;;;;;;;;;;;;;;16.73;34.92;97907.09;4380965;32;20006;-49
2021/01/21 07:05:28;;;;;;;;;;;;;;;16.70;35.00;97889.59;4384728;32;20287;-49
2021/01/21 07:08:00;;;;;;;;;;;;;;;16.59;35.21;97886.22;4384496;32;20033;-51
2021/01/21 07:10:26;;;;;;;;;;;;;;;16.71;34.97;97882.56;4380476;32;19950;-47
2021/01/21 07:12:52;;;;;;;;;;;;;;;16.74;34.91;97895.69;4384854;32;19966;-46
2021/01/21 07:15:18;;;;;;;;;;;;;;;16.59;35.22;97899.34;4384712;32;19977;-51
2021/01/21 07:17:44;;;;;;;;;;;;;;;16.67;35.16;97904.50;4388088;32;20002;-53
2021/01/21 07:20:09;;;;;;;;;;;;;;;16.71;35.05;97898.31;4375864;32;19974;-51
2021/01/21 07:22:35;;;;;;;;;;;;;;;16.60;35.35;97892.31;4391523;32;19996;-51
2021/01/21 07:25:01;;;;;;;;;;;;;;;16.51;35.51;97886.31;4395807;32;19989;-47
2021/01/21 07:27:27;;;;;;;;;;;;;;;16.48;35.64;97885.47;4393972;32;19970;-53
2021/01/21 07:29:53;;;;;;;;;;;;;;;16.55;35.42;97885.38;4394027;32;20558;-50
2021/01/21 07:32:19;;;;;;;;;;;;;;;16.72;35.19;97897.44;4394947;32;19959;-52
2021/01/21 07:34:45;;;;;;;;;;;;;;;16.72;35.21;97892.16;4398162;32;20283;-51
2021/01/21 07:37:11;;;;;;;;;;;;;;;16.75;35.19;97894.78;4395696;32;19974;-51
2021/01/21 07:39:37;;;;;;;;;;;;;;;16.76;35.21;97904.41;4393344;32;19993;-48
2021/01/21 07:42:03;;;;;;;;;;;;;;;16.75;35.26;97912.31;4394370;32;19951;-52
2021/01/21 07:44:29;;;;;;;;;;;;;;;16.73;35.22;97909.72;4397098;32;19958;-48
2021/01/21 07:46:54;;;;;;;;;;;;;;;16.73;35.24;97904.47;4394254;32;19958;-51
2021/01/21 07:49:21;;;;;;;;;;;;;;;16.75;35.24;97912.31;4392709;32;19980;-51
2021/01/21 07:51:46;;;;;;;;;;;;;;;16.72;35.29;97918.47;4394398;32;19947;-48
2021/01/21 07:54:12;;;;;;;;;;;;;;;16.76;35.21;97906.16;4395713;32;20437;-49
2021/01/21 07:56:38;;;;;;;;;;;;;;;16.76;35.26;97914.91;4381250;32;19965;-48
2021/01/21 07:59:04;;;;;;;;;;;;;;;16.78;35.19;97909.62;4399063;32;20001;-53
2021/01/21 08:01:30;;;;;;;;;;;;;;;16.79;35.22;97908.75;4402143;32;20249;-49
2021/01/21 08:03:56;;;;;;;;;;;;;;;16.79;35.24;97914.00;4398959;32;19958;-46
2021/01/21 08:06:22;;;;;;;;;;;;;;;16.78;35.23;97901.75;4401855;32;19943;-48
2021/01/21 08:08:48;;;;;;;;;;;;;;;16.77;35.22;97916.66;4403400;32;19954;-47
2021/01/21 08:11:14;;;;;;;;;;;;;;;16.78;35.28;97920.13;4401700;32;20029;-48
2021/01/21 08:13:40;;;;;;;;;;;;;;;16.78;35.23;97918.41;4409764;32;19957;-46
2021/01/21 08:16:06;;;;;;;;;;;;;;;16.77;35.25;97916.66;4416821;32;19977;-45
2021/01/21 08:18:32;;;;;;;;;;;;;;;16.78;35.24;97928.91;4409603;32;19951;-47
2021/01/21 08:20:58;;;;;;;;;;;;;;;16.78;35.28;97926.28;4401427;32;19962;-47
2021/01/21 08:23:23;;;;;;;;;;;;;;;16.79;35.26;97930.66;4402809;32;20306;-47
2021/01/21 08:25:49;;;;;;;;;;;;;;;16.66;35.53;97936.94;4386138;32;19935;-47
2021/01/21 08:28:15;;;;;;;;;;;;;;;16.65;35.58;97935.19;4389123;32;19993;-51
2021/01/21 08:30:41;;;;;;;;;;;;;;;16.61;35.69;97934.34;4401795;32;20044;-48
2021/01/21 08:33:07;;;;;;;;;;;;;;;16.54;35.83;97946.69;4407798;32;19977;-47
2021/01/21 08:35:33;;;;;;;;;;;;;;;16.62;35.71;97951.84;4397444;32;19958;-47
2021/01/21 08:37:59;;;;;;;;;;;;;;;16.71;35.57;97948.25;4402875;32;19950;-45
2021/01/21 08:40:25;;;;;;;;;;;;;;;16.63;35.73;97958.00;4386922;32;19966;-46
2021/01/21 08:42:51;;;;;;;;;;;;;;;16.62;35.76;97953.63;4402125;32;19966;-47
2021/01/21 08:45:17;;;;;;;;;;;;;;;16.57;35.97;97959.78;4403025;32;20296;-47
2021/01/21 08:47:43;;;;;;;;;;;;;;;16.51;36.02;97959.88;4403630;32;19950;-46
2021/01/21 08:50:09;;;;;;;;;;;;;;;16.57;35.92;97966.81;4400622;32;19946;-50
2021/01/21 08:52:36;;;;;;;;;;;;;;;16.77;35.55;97969.22;4402762;32;19964;-46
2021/01/21 08:55:02;;;;;;;;;;;;;;;16.85;35.47;97972.66;4400685;32;19970;-46
2021/01/21 08:57:28;;;;;;;;;;;;;;;16.78;35.52;97976.22;4387299;32;20434;-46
2021/01/21 08:59:54;;;;;;;;;;;;;;;16.68;35.91;97979.84;4395502;32;20408;-46
2021/01/21 09:02:20;;;;;;;;;;;;;;;16.76;35.78;97978.00;4398066;32;19962;-47
2021/01/21 09:04:46;;;;;;;;;;;;;;;16.78;35.74;97980.59;4397983;32;19973;-45
2021/01/21 09:07:12;;;;;;;;;;;;;;;16.79;35.77;97977.06;4400592;32;20035;-49
2021/01/21 09:09:38;;;;;;;;;;;;;;;16.79;35.74;97987.59;4399925;32;19981;-48
2021/01/21 09:12:04;;;;;;;;;;;;;;;16.82;35.64;97995.47;4400057;32;20037;-48
2021/01/21 09:14:30;;;;;;;;;;;;;;;16.84;35.64;97989.28;4397707;32;19981;-51
2021/01/21 09:16:56;;;;;;;;;;;;;;;16.86;35.58;98003.31;4395592;32;19958;-47
2021/01/21 09:19:22;;;;;;;;;;;;;;;16.78;35.78;97999.88;4399608;32;19970;-48
2021/01/21 09:21:48;;;;;;;;;;;;;;;16.82;35.69;98003.34;4391764;32;19994;-47
2021/01/21 09:24:14;;;;;;;;;;;;;;;16.85;35.67;98016.44;4397058;32;20106;-46
2021/01/21 09:26:39;;;;;;;;;;;;;;;16.86;35.68;98016.44;4394570;32;19954;-45
2021/01/21 09:29:05;;;;;;;;;;;;;;;16.88;35.61;98036.59;4388161;32;19951;-46
2021/01/21 09:31:31;;;;;;;;;;;;;;;16.87;35.67;98022.56;4397739;32;20320;-51
2021/01/21 09:33:57;;;;;;;;;;;;;;;16.85;35.74;98069.03;4394597;32;19990;-51
2021/01/21 09:36:23;;;;;;;;;;;;;;;16.89;35.76;98088.28;4399701;32;20071;-53
2021/01/21 09:38:49;;;;;;;;;;;;;;;15.54;43.24;98108.41;4401402;32;20327;-47
2021/01/21 09:41:15;;;;;;;;;;;;;;;15.38;43.59;98129.44;4403362;32;19958;-51
2021/01/21 09:43:41;;;;;;;;;;;;;;;15.53;42.21;98114.53;4403359;32;19954;-53
2021/01/21 09:46:07;;;;;;;;;;;;;;;16.04;40.43;98123.94;4402538;32;19950;-52
2021/01/21 09:48:33;;;;;;;;;;;;;;;16.24;40.06;98127.34;4402957;32;20009;-51
2021/01/21 09:50:59;;;;;;;;;;;;;;;16.39;39.51;98126.34;4402453;32;19959;-49
2021/01/21 09:53:25;;;;;;;;;;;;;;;16.47;38.70;98134.16;4402307;32;20306;-52
2021/01/21 09:55:55;;;;;;;;;;;;;;;16.42;39.24;98135.97;4405801;32;19954;-52
2021/01/21 09:58:21;;;;;;;;;;;;;;;16.48;39.38;98141.16;4386876;32;19971;-50
2021/01/21 10:00:47;;;;;;;;;;;;;;;16.53;38.92;98139.38;4396890;32;20314;-50
2021/01/21 10:03:12;;;;;;;;;;;;;;;16.58;39.04;98139.34;4401654;32;19965;-53
2021/01/21 10:05:38;;;;;;;;;;;;;;;16.56;39.16;98146.38;4402363;32;19965;-48
2021/01/21 10:08:04;;;;;;;;;;;;;;;16.58;38.47;98160.38;4401718;32;19981;-53
2021/01/21 10:10:30;;;;;;;;;;;;;;;16.60;39.27;98174.38;4397096;32;19958;-52
2021/01/21 10:12:56;;;;;;;;;;;;;;;16.62;38.58;98166.47;4401044;32;19954;-49
2021/01/21 10:15:22;;;;;;;;;;;;;;;16.68;38.00;98169.94;4399030;32;19947;-50
2021/01/21 10:17:48;;;;;;;;;;;;;;;16.85;37.52;98177.69;4401741;32;20033;-48
2021/01/21 10:20:14;;;;;;;;;;;;;;;16.88;37.54;98176.78;4399869;32;20080;-51
2021/01/21 10:22:40;;;;;;;;;;;;;;;16.90;37.46;98184.66;4400540;32;20037;-51
2021/01/21 10:25:06;;;;;;;;;;;;;;;16.94;37.15;98181.09;4398279;32;20025;-52
2021/01/21 10:27:33;;;;;;;;;;;;;;;16.96;37.22;98192.47;4400035;32;20010;-49
2021/01/21 10:29:59;;;;;;;;;;;;;;;16.98;37.08;98193.38;4387695;32;19950;-47
2021/01/21 10:32:25;;;;;;;;;;;;;;;16.97;37.11;98186.34;4400429;32;19957;-49
2021/01/21 10:34:51;;;;;;;;;;;;;;;17.01;37.12;98180.22;4401146;32;19969;-51
2021/01/21 10:37:17;;;;;;;;;;;;;;;16.98;37.23;98181.06;4399125;32;19946;-51
2021/01/21 10:39:43;;;;;;;;;;;;;;;16.95;37.61;98182.84;4389793;32;19977;-51
2021/01/21 10:42:09;;;;;;;;;;;;;;;16.85;37.71;98174.19;4399283;32;19960;-51
2021/01/21 10:44:35;;;;;;;;;;;;;;;16.88;37.76;98183.81;4393628;32;19958;-47
2021/01/21 10:47:01;;;;;;;;;;;;;;;16.88;37.96;98192.53;4399787;32;19955;-52
2021/01/21 10:49:27;;;;;;;;;;;;;;;16.42;39.06;98188.50;4399928;32;20408;-51
2021/01/21 10:51:56;;;;;;;;;;;;;;;16.66;38.05;98182.19;4401094;32;19954;-57
2021/01/21 10:54:22;;;;;;;;;;;;;;;16.86;37.88;98163.66;4400326;32;19950;-53
2021/01/21 10:56:48;;;;;;;;;;;;;;;16.97;38.11;98165.31;4402527;32;19981;-49
2021/01/21 10:59:14;;;;;;;;;;;;;;;16.44;39.26;98160.47;4400209;32;19951;-56
2021/01/21 11:01:40;;;;;;;;;;;;;;;16.73;38.52;98167.28;4400064;32;20377;-52
2021/01/21 11:04:06;;;;;;;;;;;;;;;16.90;37.80;98180.25;4400799;32;19962;-52
2021/01/21 11:06:32;;;;;;;;;;;;;;;16.91;38.08;98181.16;4399755;32;19951;-55
2021/01/21 11:08:58;;;;;;;;;;;;;;;16.95;37.90;98180.22;4399414;32;20013;-49
2021/01/21 11:11:24;;;;;;;;;;;;;;;16.89;38.00;98178.50;4401697;32;19958;-52
2021/01/21 11:13:52;;;;;;;;;;;;;;;16.82;38.13;98174.22;4400581;32;20380;-50
2021/01/21 11:16:17;;;;;;;;;;;;;;;16.86;38.13;98187.31;4401586;32;20379;-51
2021/01/21 11:18:43;;;;;;;;;;;;;;;16.99;37.88;98195.09;4399831;32;19996;-52
2021/01/21 11:21:09;;;;;;;;;;;;;;;16.96;37.87;98181.97;4401061;32;20295;-53
2021/01/21 11:23:35;;;;;;;;;;;;;;;16.95;37.66;98173.22;4406660;32;19973;-55
2021/01/21 11:26:01;;;;;;;;;;;;;;;16.97;37.55;98181.06;4396564;32;19992;-50
2021/01/21 11:28:27;;;;;;;;;;;;;;;17.02;37.53;98181.06;4390852;32;19957;-48
2021/01/21 11:30:53;;;;;;;;;;;;;;;17.11;37.25;98189.78;4403343;32;20006;-51
2021/01/21 11:33:19;;;;;;;;;;;;;;;17.16;37.18;98187.06;4393798;32;19984;-49
2021/01/21 11:35:45;;;;;;;;;;;;;;;17.18;37.16;98192.34;4396023;32;19955;-53
2021/01/21 11:38:11;;;;;;;;;;;;;;;17.09;37.35;98191.53;4399117;32;19954;-48
2021/01/21 11:40:36;;;;;;;;;;;;;;;17.13;37.32;98182.75;4392113;32;19961;-54
2021/01/21 11:43:02;;;;;;;;;;;;;;;17.09;37.41;98180.16;4401028;32;19950;-51
2021/01/21 11:45:30;;;;;;;;;;;;;;;17.10;37.45;98189.78;4393300;32;19974;-49
2021/01/21 11:47:55;;;;;;;;;;;;;;;17.17;37.30;98191.47;4402134;32;19976;-50
2021/01/21 11:50:21;;;;;;;;;;;;;;;17.14;37.28;98188.84;4394318;32;20300;-53
2021/01/21 11:52:47;;;;;;;;;;;;;;;17.20;37.21;98199.34;4399098;32;19954;-53
2021/01/21 11:55:13;;;;;;;;;;;;;;;17.16;37.26;98194.97;4396923;32;19950;-50
2021/01/21 11:57:39;;;;;;;;;;;;;;;17.17;37.21;98190.59;4398250;32;20037;-50
2021/01/21 12:00:05;;;;;;;;;;;;;;;17.20;37.14;98193.19;4396167;32;20299;-51
2021/01/21 12:02:31;;;;;;;;;;;;;;;17.18;37.17;98184.44;4398644;32;19974;-48
2021/01/21 12:04:57;;;;;;;;;;;;;;;17.14;37.21;98184.47;4395588;32;19955;-53
2021/01/21 12:07:23;;;;;;;;;;;;;;;17.14;37.24;98202.00;4404667;32;20064;-49
2021/01/21 12:09:49;;;;;;;;;;;;;;;17.10;37.37;98193.28;4404010;32;19954;-54
2021/01/21 12:12:15;;;;;;;;;;;;;;;17.11;37.49;98191.50;4404980;32;19946;-51
2021/01/21 12:14:41;;;;;;;;;;;;;;;17.07;37.53;98185.41;4404070;32;19947;-48
2021/01/21 12:17:06;;;;;;;;;;;;;;;17.05;37.51;98187.19;4404409;32;19976;-53
2021/01/21 12:19:33;;;;;;;;;;;;;;;17.03;37.59;98186.34;4403851;32;19953;-55
2021/01/21 12:21:59;;;;;;;;;;;;;;;17.04;37.55;98187.19;4405192;32;19969;-52
2021/01/21 12:24:24;;;;;;;;;;;;;;;17.03;37.59;98196.84;4403795;32;19962;-51
2021/01/21 12:26:50;;;;;;;;;;;;;;;17.04;37.51;98185.44;4405643;32;19959;-50
2021/01/21 12:29:16;;;;;;;;;;;;;;;17.06;37.38;98183.66;4403669;32;19984;-52
2021/01/21 12:31:42;;;;;;;;;;;;;;;17.10;37.30;98192.41;4403728;32;19969;-50
2021/01/21 12:34:08;;;;;;;;;;;;;;;17.10;37.26;98192.41;4394135;32;19997;-51
2021/01/21 12:36:34;;;;;;;;;;;;;;;17.10;37.29;98182.78;4394865;32;20397;-52
2021/01/21 12:39:00;;;;;;;;;;;;;;;17.09;37.30;98181.00;4397845;32;19977;-53
2021/01/21 12:41:26;;;;;;;;;;;;;;;17.08;37.29;98184.53;4396232;32;19963;-52